Time;durP1;ratioP1;P1;durP2;ratioP2;P2;SDS_P1;SDS_P2;PMS_P1;PMS_P2;Temp;Humidity;BMP_temperature;BMP_pressure;BME280_temperature;BME280_humidity;BME280_pressure;Samples;Min_cycle;Max_cycle;Signal;HPM_P1;HPM_P2
2023/05/09 00:00:32;;;;;;;0.10;0.10;;;12.50;99.90;;;;;;5046257;28;20670;-80
2023/05/09 00:02:58;;;;;;;0.10;0.10;;;12.40;99.90;;;;;;5049817;28;20199;-80
2023/05/09 00:05:23;;;;;;;0.10;0.10;;;12.40;99.90;;;;;;5038815;28;20265;-79
2023/05/09 00:07:49;;;;;;;0.10;0.10;;;12.30;99.90;;;;;;5030966;28;20192;-80
2023/05/09 00:10:15;;;;;;;0.10;0.10;;;12.30;99.90;;;;;;5035483;28;20647;-80
2023/05/09 00:12:42;;;;;;;0.10;0.10;;;12.30;99.90;;;;;;5036016;28;20195;-79
2023/05/09 00:15:08;;;;;;;0.10;0.10;;;12.20;99.90;;;;;;5036587;28;20183;-81
2023/05/09 00:17:35;;;;;;;0.10;0.10;;;12.20;99.90;;;;;;5033510;28;20484;-83
2023/05/09 00:20:03;;;;;;;0.10;0.10;;;12.20;99.90;;;;;;5034501;28;20591;-79
2023/05/09 00:22:29;;;;;;;0.10;0.10;;;12.10;99.90;;;;;;5040945;28;20447;-80
2023/05/09 00:24:54;;;;;;;0.00;0.00;;;12.10;99.90;;;;;;5037504;28;20446;-80
2023/05/09 00:27:20;;;;;;;0.10;0.10;;;12.10;99.90;;;;;;5032807;28;20202;-80
2023/05/09 00:29:45;;;;;;;0.10;0.10;;;12.10;99.90;;;;;;5033489;28;20241;-81
2023/05/09 00:32:11;;;;;;;0.00;0.00;;;12.00;99.90;;;;;;5040681;28;20205;-80
2023/05/09 00:34:36;;;;;;;0.10;0.10;;;12.00;99.90;;;;;;5032848;28;20187;-82
2023/05/09 00:37:02;;;;;;;0.10;0.10;;;12.00;99.90;;;;;;5044730;28;20222;-81
2023/05/09 00:39:27;;;;;;;0.10;0.10;;;11.90;99.90;;;;;;5049703;28;20583;-81
2023/05/09 00:41:55;;;;;;;0.10;0.10;;;11.90;99.90;;;;;;5050505;28;20191;-82
2023/05/09 00:44:20;;;;;;;0.03;0.03;;;11.90;99.90;;;;;;5049533;28;20583;-83
2023/05/09 00:46:46;;;;;;;0.10;0.10;;;11.90;99.90;;;;;;5038497;28;20901;-79
2023/05/09 00:49:12;;;;;;;0.10;0.10;;;11.90;99.90;;;;;;5042320;28;20194;-81
2023/05/09 00:51:39;;;;;;;0.10;0.10;;;11.80;99.90;;;;;;5031802;28;20281;-80
2023/05/09 00:54:05;;;;;;;0.10;0.10;;;11.80;99.90;;;;;;5040272;28;20221;-81
2023/05/09 00:56:31;;;;;;;0.10;0.10;;;11.80;99.90;;;;;;5039757;28;20511;-79
2023/05/09 00:58:57;;;;;;;0.10;0.10;;;11.80;99.90;;;;;;5040186;28;20433;-79
2023/05/09 01:01:23;;;;;;;0.10;0.10;;;11.70;99.90;;;;;;5040787;28;20197;-81
2023/05/09 01:03:49;;;;;;;0.10;0.10;;;11.70;99.90;;;;;;5044064;28;20269;-80
2023/05/09 01:06:56;;;;;;;0.10;0.10;;;11.70;99.90;;;;;;5037521;28;20187;-79
2023/05/09 01:09:42;;;;;;;0.10;0.10;;;11.60;99.90;;;;;;5036217;28;20876;-80
2023/05/09 01:12:28;;;;;;;0.10;0.10;;;11.70;99.90;;;;;;5047540;28;20460;-80
2023/05/09 01:15:04;;;;;;;0.10;0.10;;;11.60;99.90;;;;;;5030531;28;20434;-80
2023/05/09 01:17:37;;;;;;;0.10;0.10;;;11.50;99.90;;;;;;5036672;28;20485;-81
2023/05/09 01:20:19;;;;;;;0.10;0.10;;;11.50;99.90;;;;;;5028496;28;20942;-80
2023/05/09 01:22:51;;;;;;;0.10;0.10;;;11.40;99.90;;;;;;5036929;28;21016;-81
2023/05/09 01:25:38;;;;;;;0.03;0.03;;;11.40;99.90;;;;;;5043373;28;20441;-80
2023/05/09 01:28:11;;;;;;;0.10;0.10;;;11.40;99.90;;;;;;5032034;28;20430;-79
2023/05/09 01:30:38;;;;;;;0.10;0.10;;;11.30;99.90;;;;;;5042653;28;20503;-81
2023/05/09 01:33:06;;;;;;;0.10;0.10;;;11.30;99.90;;;;;;5047078;28;20441;-81
2023/05/09 01:35:34;;;;;;;0.10;0.10;;;11.30;99.90;;;;;;5030790;28;20434;-79
2023/05/09 01:38:03;;;;;;;0.10;0.10;;;11.20;99.90;;;;;;5031449;28;20450;-80
2023/05/09 01:40:32;;;;;;;0.20;0.20;;;11.20;99.90;;;;;;5045536;28;20437;-81
2023/05/09 01:43:02;;;;;;;0.10;0.10;;;11.20;99.90;;;;;;5042169;28;20537;-81
2023/05/09 01:45:28;;;;;;;0.10;0.10;;;11.20;99.90;;;;;;5043589;28;20432;-82
2023/05/09 01:47:55;;;;;;;0.10;0.10;;;11.10;99.90;;;;;;5031334;28;20539;-81
2023/05/09 01:50:22;;;;;;;0.10;0.10;;;11.10;99.90;;;;;;5048629;28;20449;-80
2023/05/09 01:52:51;;;;;;;0.10;0.10;;;11.00;99.90;;;;;;5046671;28;20489;-80
2023/05/09 01:55:18;;;;;;;0.10;0.10;;;10.90;99.90;;;;;;5040247;28;20557;-82
2023/05/09 01:57:45;;;;;;;0.10;0.10;;;11.00;99.90;;;;;;5038975;28;20446;-80
2023/05/09 02:00:13;;;;;;;0.10;0.10;;;10.90;99.90;;;;;;5031404;28;20446;-80
2023/05/09 02:02:40;;;;;;;0.10;0.10;;;10.90;99.90;;;;;;5035614;28;20426;-80
2023/05/09 02:05:08;;;;;;;0.10;0.10;;;10.90;99.90;;;;;;5042106;28;20892;-80
2023/05/09 02:07:35;;;;;;;0.10;0.10;;;10.90;99.90;;;;;;5031513;28;20450;-82
2023/05/09 02:10:01;;;;;;;0.10;0.10;;;10.80;99.90;;;;;;5031997;28;20446;-80
2023/05/09 02:12:27;;;;;;;0.10;0.10;;;10.90;99.90;;;;;;5037911;28;20446;-80
2023/05/09 02:14:53;;;;;;;0.10;0.10;;;10.90;99.90;;;;;;5035654;28;20451;-80
2023/05/09 02:17:18;;;;;;;0.10;0.10;;;10.90;99.90;;;;;;5032435;28;20230;-80
2023/05/09 02:19:44;;;;;;;0.10;0.10;;;10.80;99.90;;;;;;5040301;28;20273;-80
2023/05/09 02:22:11;;;;;;;0.10;0.10;;;10.80;99.90;;;;;;5030785;28;20971;-80
2023/05/09 02:24:37;;;;;;;0.10;0.10;;;10.80;99.90;;;;;;5034741;28;20184;-79
2023/05/09 02:27:04;;;;;;;0.10;0.10;;;10.70;99.90;;;;;;5039674;28;20445;-82
2023/05/09 02:29:40;;;;;;;0.10;0.10;;;10.60;99.90;;;;;;5049211;28;20195;-81
2023/05/09 02:32:22;;;;;;;0.10;0.10;;;10.70;99.90;;;;;;5035322;28;20441;-81
2023/05/09 02:34:50;;;;;;;0.10;0.10;;;10.70;99.90;;;;;;5030830;28;20442;-81
2023/05/09 02:37:16;;;;;;;0.07;0.07;;;10.70;99.90;;;;;;5039004;28;20749;-79
2023/05/09 02:39:42;;;;;;;0.10;0.10;;;10.60;99.90;;;;;;5036121;28;20434;-81
2023/05/09 02:42:10;;;;;;;0.10;0.10;;;10.60;99.90;;;;;;5043413;28;20465;-79
2023/05/09 02:44:37;;;;;;;0.10;0.10;;;10.60;99.90;;;;;;5046852;28;20466;-81
2023/05/09 02:47:03;;;;;;;0.10;0.10;;;10.60;99.90;;;;;;5041031;28;20446;-81
2023/05/09 02:49:29;;;;;;;0.10;0.10;;;10.50;99.90;;;;;;5033882;28;20450;-83
2023/05/09 02:51:55;;;;;;;0.03;0.03;;;10.50;99.90;;;;;;5043880;28;20503;-81
2023/05/09 02:54:20;;;;;;;0.10;0.10;;;10.50;99.90;;;;;;5046349;28;20433;-82
2023/05/09 02:56:46;;;;;;;0.10;0.10;;;10.40;99.90;;;;;;5043389;28;20250;-81
2023/05/09 02:59:12;;;;;;;0.10;0.10;;;10.40;99.90;;;;;;5040736;28;20712;-81
2023/05/09 03:01:37;;;;;;;0.10;0.10;;;10.40;99.90;;;;;;5038551;28;20539;-81
2023/05/09 03:04:03;;;;;;;0.10;0.10;;;10.30;99.90;;;;;;5031601;28;20294;-80
2023/05/09 03:06:29;;;;;;;0.10;0.10;;;10.30;99.90;;;;;;5032783;28;20184;-81
2023/05/09 03:08:55;;;;;;;0.20;0.20;;;10.30;99.90;;;;;;5039139;28;20187;-81
2023/05/09 03:11:22;;;;;;;0.10;0.10;;;10.20;99.90;;;;;;5031298;28;20430;-81
2023/05/09 03:13:47;;;;;;;0.10;0.10;;;10.20;99.90;;;;;;5030028;28;20525;-80
2023/05/09 03:16:14;;;;;;;0.10;0.10;;;10.20;99.90;;;;;;5040539;28;20568;-81
2023/05/09 03:18:39;;;;;;;0.10;0.10;;;10.10;99.90;;;;;;5033152;28;20232;-80
2023/05/09 03:21:05;;;;;;;0.10;0.10;;;10.10;99.90;;;;;;5047642;28;20452;-82
2023/05/09 03:23:31;;;;;;;0.10;0.10;;;10.20;99.90;;;;;;5044707;28;20187;-81
2023/05/09 03:25:56;;;;;;;0.20;0.20;;;10.10;99.90;;;;;;5036778;28;20194;-83
2023/05/09 03:28:22;;;;;;;0.03;0.03;;;10.10;99.90;;;;;;5046030;28;20180;-80
2023/05/09 03:30:48;;;;;;;0.10;0.10;;;10.10;99.90;;;;;;5044655;28;20189;-80
2023/05/09 03:33:14;;;;;;;0.10;0.10;;;10.10;99.90;;;;;;5032321;28;20221;-82
2023/05/09 03:35:39;;;;;;;0.10;0.10;;;10.00;99.90;;;;;;5043840;28;20477;-80
2023/05/09 03:38:05;;;;;;;0.10;0.10;;;10.00;99.90;;;;;;5036462;28;20214;-80
2023/05/09 03:40:30;;;;;;;0.10;0.10;;;10.10;99.90;;;;;;5035190;28;20186;-80
2023/05/09 03:42:56;;;;;;;0.10;0.10;;;10.10;99.90;;;;;;5050200;28;20292;-81
2023/05/09 03:45:21;;;;;;;0.20;0.20;;;10.00;99.90;;;;;;5031871;28;20199;-80
2023/05/09 03:47:47;;;;;;;0.17;0.17;;;9.90;99.90;;;;;;5036159;28;20262;-83
2023/05/09 03:50:12;;;;;;;0.10;0.10;;;10.00;99.90;;;;;;5045266;28;20183;-80
2023/05/09 03:52:38;;;;;;;0.17;0.17;;;10.00;99.90;;;;;;5047689;28;20192;-80
2023/05/09 03:55:04;;;;;;;0.20;0.20;;;10.00;99.90;;;;;;5043269;28;20216;-82
2023/05/09 03:57:30;;;;;;;0.10;0.10;;;10.00;99.90;;;;;;5048879;28;20230;-81
2023/05/09 03:59:55;;;;;;;0.10;0.10;;;10.00;99.90;;;;;;5049846;28;21019;-81
2023/05/09 04:02:22;;;;;;;0.20;0.20;;;9.90;99.90;;;;;;5044792;28;20195;-82
2023/05/09 04:04:48;;;;;;;0.10;0.10;;;9.80;99.90;;;;;;5035101;28;20183;-82
2023/05/09 04:07:14;;;;;;;0.10;0.10;;;9.90;99.90;;;;;;5040511;28;20446;-80
2023/05/09 04:09:41;;;;;;;0.20;0.20;;;9.90;99.90;;;;;;5031981;28;20939;-81
2023/05/09 04:12:07;;;;;;;0.13;0.13;;;9.90;99.90;;;;;;5055613;28;20191;-81
2023/05/09 04:14:33;;;;;;;0.10;0.10;;;9.90;99.90;;;;;;5032264;28;20936;-82
2023/05/09 04:16:58;;;;;;;0.13;0.13;;;9.80;99.90;;;;;;5040715;28;20489;-82
2023/05/09 04:19:24;;;;;;;0.10;0.10;;;9.80;99.90;;;;;;5030268;28;20195;-84
2023/05/09 04:21:49;;;;;;;0.10;0.10;;;9.80;99.90;;;;;;5047873;28;20199;-81
2023/05/09 04:24:15;;;;;;;0.10;0.10;;;9.80;99.90;;;;;;5035681;28;20187;-82
2023/05/09 04:26:41;;;;;;;0.10;0.10;;;9.80;99.90;;;;;;5031154;28;20194;-82
2023/05/09 04:29:06;;;;;;;0.20;0.20;;;9.70;99.90;;;;;;5045852;28;20229;-83
2023/05/09 04:31:32;;;;;;;0.20;0.20;;;9.80;99.90;;;;;;5037080;28;20551;-83
2023/05/09 04:33:57;;;;;;;0.10;0.10;;;9.70;99.90;;;;;;5028537;28;20187;-84
2023/05/09 04:36:23;;;;;;;0.10;0.10;;;9.70;99.90;;;;;;5029503;28;20226;-84
2023/05/09 04:38:49;;;;;;;0.10;0.10;;;9.70;99.90;;;;;;5030864;28;20254;-82
2023/05/09 04:41:15;;;;;;;0.10;0.10;;;9.80;99.90;;;;;;5043188;28;20182;-81
2023/05/09 04:43:41;;;;;;;0.10;0.10;;;9.70;99.90;;;;;;5036658;28;20219;-82
2023/05/09 04:46:07;;;;;;;0.10;0.10;;;9.80;99.90;;;;;;5033830;28;20465;-82
2023/05/09 04:48:34;;;;;;;0.20;0.20;;;9.70;99.90;;;;;;5030652;28;22458;-81
2023/05/09 04:50:59;;;;;;;0.10;0.10;;;9.70;99.90;;;;;;5049513;28;20198;-82
2023/05/09 04:53:25;;;;;;;0.10;0.10;;;9.80;99.90;;;;;;5039111;28;20437;-81
2023/05/09 04:55:52;;;;;;;0.10;0.10;;;9.80;99.90;;;;;;5033873;28;20206;-81
2023/05/09 04:58:17;;;;;;;0.10;0.10;;;9.80;99.90;;;;;;5028536;28;20537;-83
2023/05/09 05:00:43;;;;;;;0.10;0.10;;;9.90;99.90;;;;;;5031597;28;21006;-82
2023/05/09 05:03:08;;;;;;;0.13;0.13;;;9.80;99.90;;;;;;5029598;28;20189;-81
2023/05/09 05:05:34;;;;;;;0.17;0.17;;;9.90;99.90;;;;;;5032979;28;20732;-83
2023/05/09 05:07:59;;;;;;;0.10;0.10;;;9.90;99.90;;;;;;5036034;28;20192;-81
2023/05/09 05:10:25;;;;;;;0.10;0.10;;;10.00;99.90;;;;;;5036164;28;20647;-81
2023/05/09 05:12:51;;;;;;;0.10;0.10;;;10.00;99.90;;;;;;5044518;28;20227;-81
2023/05/09 05:15:18;;;;;;;0.10;0.10;;;10.00;99.90;;;;;;5027317;28;20656;-81
2023/05/09 05:17:44;;;;;;;0.10;0.10;;;10.10;99.90;;;;;;5032056;28;21166;-81
2023/05/09 05:20:10;;;;;;;0.10;0.10;;;10.10;99.90;;;;;;5035372;28;20568;-82
2023/05/09 05:22:35;;;;;;;0.10;0.10;;;10.20;99.90;;;;;;5036981;28;20233;-82
2023/05/09 05:25:02;;;;;;;0.10;0.10;;;10.20;99.90;;;;;;5045561;28;20551;-82
2023/05/09 05:27:28;;;;;;;0.10;0.10;;;10.30;99.90;;;;;;5044835;28;20183;-80
2023/05/09 05:29:53;;;;;;;0.10;0.10;;;10.40;99.90;;;;;;5041627;28;20445;-83
2023/05/09 05:32:19;;;;;;;0.20;0.20;;;10.30;99.90;;;;;;5041559;28;20195;-83
2023/05/09 05:34:44;;;;;;;0.10;0.10;;;10.40;99.90;;;;;;5049555;28;20268;-80
2023/05/09 05:37:10;;;;;;;0.10;0.10;;;10.50;99.90;;;;;;5052689;28;20221;-81
2023/05/09 05:39:36;;;;;;;0.10;0.10;;;10.60;99.90;;;;;;5049558;28;20179;-80
2023/05/09 05:42:02;;;;;;;0.10;0.10;;;10.70;99.90;;;;;;5049245;28;20276;-79
2023/05/09 05:44:27;;;;;;;0.10;0.10;;;10.70;99.90;;;;;;5038202;28;20183;-81
2023/05/09 05:46:53;;;;;;;0.10;0.10;;;10.80;99.90;;;;;;5034997;28;20188;-80
2023/05/09 05:49:18;;;;;;;0.10;0.10;;;10.90;99.90;;;;;;5041084;28;20187;-80
2023/05/09 05:51:45;;;;;;;0.10;0.10;;;11.00;99.90;;;;;;5036400;28;20620;-79
2023/05/09 05:54:10;;;;;;;0.10;0.10;;;11.00;99.90;;;;;;5037168;28;20456;-80
2023/05/09 05:56:36;;;;;;;0.10;0.10;;;11.00;99.90;;;;;;5049550;28;20218;-80
2023/05/09 05:59:01;;;;;;;0.10;0.10;;;11.20;99.90;;;;;;5058686;28;20247;-79
2023/05/09 06:01:27;;;;;;;0.10;0.10;;;11.20;99.90;;;;;;5042540;28;20210;-80
2023/05/09 06:03:53;;;;;;;0.10;0.10;;;11.30;99.90;;;;;;5039280;28;20643;-80
2023/05/09 06:06:20;;;;;;;0.10;0.10;;;11.50;99.90;;;;;;5036304;28;20184;-81
2023/05/09 06:08:48;;;;;;;0.10;0.10;;;11.50;99.90;;;;;;5036528;28;20464;-80
2023/05/09 06:11:17;;;;;;;0.10;0.10;;;11.70;99.90;;;;;;5049582;28;20493;-80
2023/05/09 06:13:43;;;;;;;0.10;0.10;;;11.70;99.90;;;;;;5046839;28;20454;-79
2023/05/09 06:16:09;;;;;;;0.10;0.10;;;11.80;99.90;;;;;;5040621;28;20487;-81
2023/05/09 06:18:36;;;;;;;0.10;0.10;;;11.80;99.90;;;;;;5042335;28;20703;-80
2023/05/09 06:21:02;;;;;;;0.00;0.00;;;11.80;99.90;;;;;;5049619;28;20194;-79
2023/05/09 06:23:28;;;;;;;0.03;0.03;;;11.80;99.90;;;;;;5035064;28;20469;-79
2023/05/09 06:25:53;;;;;;;0.10;0.10;;;11.90;99.90;;;;;;5035041;28;20442;-79
2023/05/09 06:28:19;;;;;;;0.10;0.10;;;12.00;99.90;;;;;;5049433;28;20191;-80
2023/05/09 06:30:44;;;;;;;0.10;0.10;;;12.10;99.90;;;;;;5045626;28;20279;-79
2023/05/09 06:33:10;;;;;;;0.10;0.10;;;12.30;99.90;;;;;;5034506;28;20994;-83
2023/05/09 06:35:35;;;;;;;0.07;0.07;;;12.30;99.90;;;;;;5042855;28;20274;-80
2023/05/09 06:38:01;;;;;;;0.10;0.10;;;12.20;99.90;;;;;;5047332;28;20223;-79
2023/05/09 06:40:27;;;;;;;0.03;0.03;;;12.50;99.90;;;;;;5038084;28;20270;-80
2023/05/09 06:42:52;;;;;;;0.07;0.07;;;12.50;99.90;;;;;;5043844;28;20715;-78
2023/05/09 06:45:17;;;;;;;0.10;0.10;;;12.40;99.90;;;;;;5034708;28;20198;-78
2023/05/09 06:47:43;;;;;;;0.10;0.10;;;12.50;99.90;;;;;;5047587;28;20201;-79
2023/05/09 06:50:09;;;;;;;0.10;0.10;;;12.50;99.90;;;;;;5032793;28;20188;-80
2023/05/09 06:52:34;;;;;;;0.00;0.00;;;12.80;99.90;;;;;;5038271;28;20717;-80
2023/05/09 06:55:00;;;;;;;0.10;0.10;;;12.80;99.90;;;;;;5037741;28;20193;-80
2023/05/09 06:57:25;;;;;;;0.10;0.10;;;12.70;99.90;;;;;;5048565;28;20641;-79
2023/05/09 06:59:51;;;;;;;0.00;0.00;;;12.90;99.90;;;;;;5030978;28;20199;-78
2023/05/09 07:02:16;;;;;;;0.10;0.10;;;13.10;99.90;;;;;;5038378;28;20183;-80
2023/05/09 07:04:42;;;;;;;0.10;0.10;;;13.00;99.90;;;;;;5048321;28;20183;-80
2023/05/09 07:07:07;;;;;;;0.10;0.10;;;13.10;99.90;;;;;;5056237;28;20188;-78
2023/05/09 07:09:33;;;;;;;0.00;0.00;;;13.10;99.90;;;;;;5071681;28;20173;-78
2023/05/09 07:12:00;;;;;;;0.10;0.10;;;13.10;99.90;;;;;;5045146;28;20206;-80
2023/05/09 07:14:26;;;;;;;0.10;0.10;;;13.20;99.90;;;;;;5037926;28;20305;-78
2023/05/09 07:16:51;;;;;;;0.10;0.10;;;13.30;99.90;;;;;;5034375;28;21023;-79
2023/05/09 07:19:17;;;;;;;0.10;0.10;;;13.30;99.90;;;;;;5035941;28;20215;-78
2023/05/09 07:21:42;;;;;;;0.10;0.10;;;13.30;99.90;;;;;;5041367;28;20202;-79
2023/05/09 07:24:08;;;;;;;0.10;0.10;;;13.50;99.90;;;;;;5046699;28;20248;-79
2023/05/09 07:26:35;;;;;;;0.00;0.00;;;13.60;99.90;;;;;;5041700;28;20628;-82
2023/05/09 07:29:00;;;;;;;0.10;0.10;;;13.60;99.90;;;;;;5031517;28;20179;-79
2023/05/09 07:31:26;;;;;;;0.00;0.00;;;13.60;99.90;;;;;;5035104;28;20987;-79
2023/05/09 07:33:51;;;;;;;0.10;0.10;;;13.80;99.90;;;;;;5039830;28;20275;-78
2023/05/09 07:36:17;;;;;;;0.00;0.00;;;14.10;99.90;;;;;;5039197;28;20195;-79
2023/05/09 07:38:42;;;;;;;0.00;0.00;;;14.20;99.90;;;;;;5049272;28;20217;-79
2023/05/09 07:41:08;;;;;;;0.10;0.10;;;14.40;99.90;;;;;;5040803;28;20619;-78
2023/05/09 07:43:34;;;;;;;0.10;0.10;;;14.50;99.90;;;;;;5035923;28;20227;-77
2023/05/09 07:45:59;;;;;;;0.00;0.00;;;14.60;99.90;;;;;;5049788;28;20244;-78
2023/05/09 07:48:25;;;;;;;0.10;0.10;;;14.70;99.90;;;;;;5048669;28;20178;-80
2023/05/09 07:50:51;;;;;;;0.00;0.00;;;14.60;99.90;;;;;;5048758;28;20222;-78
2023/05/09 07:53:16;;;;;;;0.00;0.00;;;14.80;99.90;;;;;;5043853;28;20179;-78
2023/05/09 07:55:43;;;;;;;0.00;0.00;;;14.80;99.90;;;;;;5053653;28;20186;-77
2023/05/09 07:58:09;;;;;;;0.07;0.07;;;15.00;99.90;;;;;;5048059;28;20573;-80
2023/05/09 08:00:34;;;;;;;0.00;0.00;;;15.00;99.90;;;;;;5034123;28;20565;-80
2023/05/09 08:03:00;;;;;;;0.00;0.00;;;14.90;99.90;;;;;;5052336;28;20260;-78
2023/05/09 08:05:25;;;;;;;0.10;0.10;;;14.90;99.90;;;;;;5041930;28;20270;-80
2023/05/09 08:07:51;;;;;;;0.03;0.03;;;15.00;99.90;;;;;;5043303;28;20700;-79
2023/05/09 08:10:17;;;;;;;0.00;0.00;;;15.00;99.90;;;;;;5048264;28;20179;-80
2023/05/09 08:12:42;;;;;;;0.00;0.00;;;15.40;99.90;;;;;;5049375;28;20171;-78
2023/05/09 08:15:08;;;;;;;0.00;0.00;;;15.60;99.90;;;;;;5044285;28;20648;-80
2023/05/09 08:17:33;;;;;;;0.00;0.00;;;15.50;99.90;;;;;;5036893;28;20219;-78
2023/05/09 08:19:59;;;;;;;0.00;0.00;;;15.60;99.90;;;;;;5047104;28;20244;-79
2023/05/09 08:22:24;;;;;;;0.00;0.00;;;15.50;99.90;;;;;;5042511;28;20211;-78
2023/05/09 08:24:50;;;;;;;0.00;0.00;;;15.50;99.90;;;;;;5030125;28;20241;-79
2023/05/09 08:27:16;;;;;;;0.00;0.00;;;15.60;99.90;;;;;;5035857;28;20171;-78
2023/05/09 08:29:42;;;;;;;0.00;0.00;;;15.70;99.90;;;;;;5046355;28;20190;-79
2023/05/09 08:32:08;;;;;;;0.00;0.00;;;15.70;99.90;;;;;;5038627;28;20210;-77
2023/05/09 08:34:34;;;;;;;0.00;0.00;;;15.90;99.90;;;;;;5038126;28;20521;-77
2023/05/09 08:37:03;;;;;;;0.00;0.00;;;15.90;99.90;;;;;;5041947;28;20584;-77
2023/05/09 08:39:33;;;;;;;0.00;0.00;;;16.20;99.90;;;;;;5045790;28;20499;-79
2023/05/09 08:42:00;;;;;;;0.00;0.00;;;16.40;99.90;;;;;;5045443;28;20452;-78
2023/05/09 08:44:28;;;;;;;0.00;0.00;;;16.40;99.90;;;;;;5050151;28;20444;-82
2023/05/09 08:47:01;;;;;;;0.00;0.00;;;16.80;99.90;;;;;;5042390;28;20476;-82
2023/05/09 08:49:27;;;;;;;0.00;0.00;;;16.70;99.90;;;;;;5048921;28;20908;-79
2023/05/09 08:51:53;;;;;;;0.00;0.00;;;16.90;99.90;;;;;;5036107;28;20538;-81
2023/05/09 08:54:20;;;;;;;0.00;0.00;;;17.30;99.90;;;;;;5048509;28;20441;-81
2023/05/09 08:56:46;;;;;;;0.00;0.00;;;17.00;99.90;;;;;;5036233;28;20489;-80
2023/05/09 08:59:13;;;;;;;0.00;0.00;;;17.20;99.90;;;;;;5051102;28;20440;-80
2023/05/09 09:01:40;;;;;;;0.00;0.00;;;17.20;99.90;;;;;;5054767;28;20239;-81
2023/05/09 09:04:07;;;;;;;0.00;0.00;;;17.50;99.90;;;;;;5040038;28;20486;-78
2023/05/09 09:06:34;;;;;;;0.00;0.00;;;17.40;99.90;;;;;;5048713;28;20533;-80
2023/05/09 09:09:00;;;;;;;0.00;0.00;;;17.60;99.90;;;;;;5052576;28;21301;-82
2023/05/09 09:11:29;;;;;;;0.00;0.00;;;17.60;99.90;;;;;;5044078;28;20457;-81
2023/05/09 09:13:59;;;;;;;0.00;0.00;;;17.70;99.90;;;;;;5043126;28;20450;-81
2023/05/09 09:16:26;;;;;;;0.00;0.00;;;17.90;99.90;;;;;;5036619;28;20465;-82
2023/05/09 09:18:54;;;;;;;0.00;0.00;;;17.70;99.90;;;;;;5035399;28;20520;-78
2023/05/09 09:21:21;;;;;;;0.00;0.00;;;17.80;99.90;;;;;;5037958;28;20794;-80
2023/05/09 09:23:47;;;;;;;0.00;0.00;;;18.00;99.90;;;;;;5039091;28;20445;-81
2023/05/09 09:26:13;;;;;;;0.00;0.00;;;18.10;99.90;;;;;;5047250;28;20490;-80
2023/05/09 09:28:39;;;;;;;0.00;0.00;;;18.00;99.90;;;;;;5051590;28;20433;-79
2023/05/09 09:31:24;;;;;;;0.00;0.00;;;18.20;99.90;;;;;;5049911;28;20201;-80
2023/05/09 09:33:50;;;;;;;0.00;0.00;;;18.40;99.90;;;;;;5046963;28;20441;-80
2023/05/09 09:36:26;;;;;;;0.00;0.00;;;18.40;99.90;;;;;;5041460;28;20588;-80
2023/05/09 09:38:57;;;;;;;0.00;0.00;;;18.60;99.90;;;;;;5041960;28;20451;-80
2023/05/09 09:41:32;;;;;;;0.00;0.00;;;19.20;99.90;;;;;;5045356;28;21974;-80
2023/05/09 09:43:58;;;;;;;0.00;0.00;;;18.80;99.90;;;;;;5044164;28;20476;-80
2023/05/09 09:46:24;;;;;;;0.00;0.00;;;18.90;99.90;;;;;;5045848;28;20430;-81
2023/05/09 09:48:54;;;;;;;0.00;0.00;;;18.80;99.90;;;;;;5038053;28;20572;-79
2023/05/09 09:51:20;;;;;;;0.00;0.00;;;19.10;99.90;;;;;;5044142;28;20275;-79
2023/05/09 09:53:46;;;;;;;0.00;0.00;;;19.30;99.90;;;;;;5044696;28;20618;-81
2023/05/09 09:56:11;;;;;;;0.00;0.00;;;19.30;99.90;;;;;;5039696;28;20738;-80
2023/05/09 09:58:37;;;;;;;0.00;0.00;;;19.90;99.90;;;;;;5042480;28;20199;-79
2023/05/09 10:01:08;;;;;;;0.00;0.00;;;19.70;99.90;;;;;;5037129;28;20691;-80
2023/05/09 10:03:39;;;;;;;0.00;0.00;;;19.70;99.90;;;;;;5047645;28;20222;-79
2023/05/09 10:06:09;;;;;;;0.00;0.00;;;20.10;99.90;;;;;;5040737;28;20453;-80
2023/05/09 10:08:35;;;;;;;0.00;0.00;;;19.90;99.90;;;;;;5039088;28;20442;-80
2023/05/09 10:11:00;;;;;;;0.00;0.00;;;20.20;99.90;;;;;;5043256;28;20463;-80
2023/05/09 10:13:27;;;;;;;0.00;0.00;;;20.50;99.90;;;;;;5053767;28;20387;-81
2023/05/09 10:15:54;;;;;;;0.00;0.00;;;20.40;99.90;;;;;;5049120;28;20545;-81
2023/05/09 10:18:25;;;;;;;0.00;0.00;;;20.40;99.90;;;;;;5044795;28;20470;-88
2023/05/09 10:20:52;;;;;;;0.00;0.00;;;20.20;99.90;;;;;;5042551;28;20520;-85
2023/05/09 10:23:19;;;;;;;0.00;0.00;;;20.40;99.90;;;;;;5040733;28;20452;-86
2023/05/09 10:25:51;;;;;;;0.00;0.00;;;20.90;99.90;;;;;;5053331;28;20436;-84
2023/05/09 10:28:26;;;;;;;0.00;0.00;;;21.20;99.90;;;;;;5055335;28;20468;-85
2023/05/09 10:31:26;;;;;;;0.00;0.00;;;21.70;99.90;;;;;;5037794;28;20445;-85
2023/05/09 10:33:54;;;;;;;0.00;0.00;;;21.40;99.90;;;;;;5040423;28;20864;-82
2023/05/09 10:36:22;;;;;;;0.00;0.00;;;21.30;99.90;;;;;;5042326;28;20571;-85
2023/05/09 10:38:48;;;;;;;0.00;0.00;;;21.20;99.90;;;;;;5037145;28;20443;-83
2023/05/09 10:41:16;;;;;;;0.00;0.00;;;21.50;99.90;;;;;;5047063;28;20433;-84
2023/05/09 10:43:43;;;;;;;0.00;0.00;;;21.90;99.90;;;;;;5039872;28;20473;-91
2023/05/09 10:46:08;;;;;;;0.00;0.00;;;21.60;99.90;;;;;;5047212;28;20465;-84
2023/05/09 10:48:36;;;;;;;0.00;0.00;;;21.60;99.90;;;;;;5042698;28;20476;-85
2023/05/09 10:51:02;;;;;;;0.00;0.00;;;21.60;99.90;;;;;;5055613;28;20194;-85
2023/05/09 10:53:43;;;;;;;0.00;0.00;;;21.90;99.90;;;;;;5057303;28;20429;-86
2023/05/09 10:56:20;;;;;;;0.00;0.00;;;22.00;99.90;;;;;;5034851;28;20462;-85
2023/05/09 10:58:46;;;;;;;0.00;0.00;;;22.70;99.90;;;;;;5043861;28;20450;-85
2023/05/09 11:01:12;;;;;;;0.00;0.00;;;22.30;99.90;;;;;;5029931;28;20511;-87
2023/05/09 11:03:55;;;;;;;0.00;0.00;;;22.00;99.90;;;;;;5041983;28;20445;-84
2023/05/09 11:06:49;;;;;;;0.00;0.00;;;22.10;99.90;;;;;;5039762;28;20188;-85
2023/05/09 11:09:26;;;;;;;0.00;0.00;;;22.50;99.90;;;;;;5038383;28;21243;-85
2023/05/09 11:11:53;;;;;;;0.00;0.00;;;22.60;99.90;;;;;;5037390;28;20812;-84
2023/05/09 11:14:53;;;;;;;0.00;0.00;;;22.70;99.90;;;;;;5035799;28;20449;-87
2023/05/09 11:17:21;;;;;;;0.00;0.00;;;23.40;99.90;;;;;;4996336;28;21312;-86
2023/05/09 11:19:47;;;;;;;0.00;0.00;;;23.50;99.90;;;;;;5037665;28;20446;-86
2023/05/09 11:22:21;;;;;;;0.00;0.00;;;24.00;99.90;;;;;;5043031;28;20937;-86
2023/05/09 11:24:52;;;;;;;0.00;0.00;;;23.90;99.90;;;;;;5049860;28;20978;-84
2023/05/09 11:27:23;;;;;;;0.00;0.00;;;24.70;99.90;;;;;;5057324;28;20441;-84
2023/05/09 11:29:51;;;;;;;0.00;0.00;;;24.70;99.90;;;;;;5049218;28;21221;-88
2023/05/09 11:32:18;;;;;;;0.00;0.00;;;24.40;99.90;;;;;;5041991;28;20454;-85
2023/05/09 11:34:44;;;;;;;0.00;0.00;;;24.00;99.90;;;;;;5048690;28;20436;-90
2023/05/09 11:37:11;;;;;;;0.00;0.00;;;23.90;99.90;;;;;;5057479;28;20491;-86
2023/05/09 11:39:58;;;;;;;0.00;0.00;;;23.80;99.90;;;;;;5035756;28;20437;-86
2023/05/09 11:42:27;;;;;;;0.00;0.00;;;24.30;99.90;;;;;;5038352;28;20472;-85
2023/05/09 11:44:54;;;;;;;0.00;0.00;;;24.30;99.90;;;;;;5040885;28;20438;-87
2023/05/09 11:47:20;;;;;;;0.00;0.00;;;24.30;99.90;;;;;;5039916;28;20449;-83
2023/05/09 11:49:48;;;;;;;0.00;0.00;;;24.30;99.90;;;;;;5040469;28;20442;-85
2023/05/09 11:52:14;;;;;;;0.00;0.00;;;24.90;99.90;;;;;;5037314;28;20716;-85
2023/05/09 11:54:39;;;;;;;0.00;0.00;;;24.80;99.90;;;;;;5038898;28;20445;-85
2023/05/09 11:57:06;;;;;;;0.00;0.00;;;25.50;99.90;;;;;;5038828;28;20732;-85
2023/05/09 11:59:33;;;;;;;0.00;0.00;;;25.10;99.90;;;;;;5042878;28;20676;-85
2023/05/09 12:02:05;;;;;;;0.00;0.00;;;25.60;99.90;;;;;;5037722;28;20502;-85
2023/05/09 12:04:31;;;;;;;0.00;0.00;;;25.00;99.90;;;;;;5036101;28;20441;-85
2023/05/09 12:06:59;;;;;;;0.00;0.00;;;24.80;99.90;;;;;;5044731;28;20456;-84
2023/05/09 12:09:29;;;;;;;0.00;0.00;;;24.20;99.90;;;;;;5048285;28;20930;-86
2023/05/09 12:11:54;;;;;;;0.00;0.00;;;24.00;99.90;;;;;;5043642;28;20480;-85
2023/05/09 12:14:31;;;;;;;0.00;0.00;;;23.90;99.90;;;;;;5032159;28;20873;-88
2023/05/09 12:16:57;;;;;;;0.00;0.00;;;23.50;99.90;;;;;;5044365;28;20240;-85
2023/05/09 12:19:25;;;;;;;0.00;0.00;;;23.50;99.90;;;;;;5044821;28;20495;-85
2023/05/09 12:21:57;;;;;;;0.00;0.00;;;24.00;99.90;;;;;;5041033;28;20710;-86
2023/05/09 12:24:27;;;;;;;0.00;0.00;;;23.70;99.90;;;;;;5041763;28;20499;-86
2023/05/09 12:26:57;;;;;;;0.00;0.00;;;23.40;99.90;;;;;;5036187;28;20491;-86
2023/05/09 12:29:24;;;;;;;0.00;0.00;;;23.70;99.90;;;;;;5038345;28;21100;-85
2023/05/09 12:31:51;;;;;;;0.00;0.00;;;23.20;99.90;;;;;;5031237;28;20511;-87
2023/05/09 12:34:17;;;;;;;0.00;0.00;;;24.00;99.90;;;;;;5043376;28;20442;-87
2023/05/09 12:36:50;;;;;;;0.00;0.00;;;23.30;99.90;;;;;;5044238;28;20485;-86
2023/05/09 12:39:18;;;;;;;0.00;0.00;;;24.00;99.90;;;;;;5048125;28;20205;-85
2023/05/09 12:41:44;;;;;;;0.00;0.00;;;24.70;99.90;;;;;;5048788;28;20453;-83
2023/05/09 12:44:18;;;;;;;0.00;0.00;;;25.00;99.90;;;;;;5046122;28;21024;-87
2023/05/09 12:46:59;;;;;;;0.00;0.00;;;24.20;99.90;;;;;;5048589;28;21011;-86
2023/05/09 12:49:26;;;;;;;0.00;0.00;;;23.80;99.90;;;;;;5051299;28;20972;-85